Back to Top

Language: 

My Weather Underground Personal Weather Station Historical Data with Graphs...

Delerius Weather Station Historical Data
Daily Summary for November 23, 2017 Units:  Metric    English   Both
« Previous Day
Next Day »
Daily Weekly Monthly Yearly Custom
  High: Low: Average:
Temperature: 13.3 °C 3.8 °C 7.3 °C
Dew Point: 11 °C 1.8 °C 4.7 °C
Humidity: 90 % 73 % 84 %
Wind Speed: 38.6 km/h 0 km/h 16.9 km/h
Wind Gust: 57.9 km/h - -
Wind:- - WSW
Pressure: 1003.9 hPa 978.2 hPa -
Precipitation: 0.51 mm    
Historical Graphs
 
 
Tabular Data for November 23, 2017
Time Temperature Dew Point Pressure Wind Wind Speed Wind Gust Humidity Rainfall Rate (Hourly) solar Conditions
00:05 13.3 °C 10.7 °C 978.2 hPa SW 38.6 km/h 57.9 km/h 84 % 0.25 mm 0 W/m2
00:10 13.3 °C 10.8 °C 978.6 hPa SW 32.2 km/h 46.7 km/h 85 % 0.25 mm 0 W/m2
00:15 13.1 °C 11 °C 978.6 hPa SW 25.7 km/h 40.2 km/h 87 % 0.25 mm 0 W/m2
00:25 12.9 °C 10.8 °C 979.2 hPa WSW 24.1 km/h 35.4 km/h 87 % 0.25 mm 0 W/m2
00:30 12.8 °C 10.5 °C 979.2 hPa WSW 20.9 km/h 30.6 km/h 86 % 0.25 mm 0 W/m2
00:40 12.5 °C 9.9 °C 979.6 hPa WSW 30.6 km/h 48.3 km/h 84 % 0 mm 0 W/m2
00:55 12.1 °C 8.8 °C 979.9 hPa WSW 19.3 km/h 33.8 km/h 80 % 0 mm 0 W/m2
01:10 11.8 °C 8.7 °C 979.9 hPa WSW 9.7 km/h 17.7 km/h 81 % 0 mm 0 W/m2
01:20 11.5 °C 8.6 °C 980.2 hPa WSW 12.9 km/h 19.3 km/h 82 % 0 mm 0 W/m2
01:25 11.4 °C 8.4 °C 980.2 hPa West 14.5 km/h 20.9 km/h 82 % 0 mm 0 W/m2
01:30 11.3 °C 8.3 °C 980.2 hPa West 17.7 km/h 29 km/h 82 % 0 mm 0 W/m2
01:35 11.3 °C 8.3 °C 980.2 hPa WSW 14.5 km/h 24.1 km/h 82 % 0 mm 0 W/m2
01:40 11.2 °C 8.4 °C 980.2 hPa WSW 12.9 km/h 22.5 km/h 83 % 0 mm 0 W/m2
01:45 11.2 °C 8.4 °C 980.2 hPa WSW 12.9 km/h 19.3 km/h 83 % 0 mm 0 W/m2
01:50 11.2 °C 8.4 °C 980.6 hPa WSW 11.3 km/h 16.1 km/h 83 % 0 mm 0 W/m2
01:55 11.2 °C 8.4 °C 980.6 hPa WSW 11.3 km/h 16.1 km/h 83 % 0 mm 0 W/m2
01:56 11.2 °C 8.4 °C 980.6 hPa WSW 11.3 km/h 16.1 km/h 83 % 0 mm 0 W/m2
02:06 11.2 °C 8.4 °C 980.6 hPa WSW 11.3 km/h 17.7 km/h 83 % 0 mm 0 W/m2
02:11 11.2 °C 8.4 °C 980.6 hPa SW 12.9 km/h 17.7 km/h 83 % 0 mm 0 W/m2
02:21 11.2 °C 8.4 °C 980.6 hPa SW 9.7 km/h 12.9 km/h 83 % 0 mm 0 W/m2
02:26 11.1 °C 8.3 °C 980.6 hPa SW 8 km/h 11.3 km/h 83 % 0 mm 0 W/m2
02:31 11 °C 8.2 °C 980.6 hPa SW 9.7 km/h 16.1 km/h 83 % 0 mm 0 W/m2
02:36 11.1 °C 8.5 °C 980.6 hPa SW 11.3 km/h 14.5 km/h 84 % 0 mm 0 W/m2
02:41 11.1 °C 8.5 °C 980.6 hPa SW 9.7 km/h 16.1 km/h 84 % 0 mm 0 W/m2
02:46 11.1 °C 8.5 °C 980.9 hPa SW 9.7 km/h 14.5 km/h 84 % 0 mm 0 W/m2
03:01 11.1 °C 8.8 °C 980.6 hPa SSW 14.5 km/h 25.7 km/h 86 % 0 mm 0 W/m2
03:11 11 °C 8.7 °C 980.6 hPa SSW 12.9 km/h 19.3 km/h 86 % 0 mm 0 W/m2
03:16 11 °C 8.7 °C 980.6 hPa SW 12.9 km/h 22.5 km/h 86 % 0 mm 0 W/m2
03:18 11 °C 8.7 °C 980.6 hPa SW 11.3 km/h 17.7 km/h 86 % 0 mm 0 W/m2
03:21 10.9 °C 8.7 °C 980.6 hPa SW 14.5 km/h 22.5 km/h 86 % 0 mm 0 W/m2
03:24 10.9 °C 8.7 °C 980.6 hPa SW 14.5 km/h 22.5 km/h 86 % 0 mm 0 W/m2
03:26 10.9 °C 8.7 °C 980.6 hPa SW 14.5 km/h 22.5 km/h 86 % 0 mm 0 W/m2
03:28 10.9 °C 8.7 °C 980.6 hPa WSW 9.7 km/h 12.9 km/h 86 % 0 mm 0 W/m2
03:32 10.9 °C 8.8 °C 980.9 hPa WSW 8 km/h 14.5 km/h 87 % 0 mm 0 W/m2
03:37 10.9 °C 8.8 °C 980.9 hPa WSW 12.9 km/h 19.3 km/h 87 % 0 mm 0 W/m2
03:42 10.8 °C 8.7 °C 980.9 hPa WSW 12.9 km/h 24.1 km/h 87 % 0 mm 0 W/m2
03:47 10.6 °C 8.3 °C 981.3 hPa West 22.5 km/h 32.2 km/h 86 % 0 mm 0 W/m2
03:52 10.3 °C 8.1 °C 981.3 hPa West 19.3 km/h 30.6 km/h 86 % 0 mm 0 W/m2
03:57 9.8 °C 7.6 °C 981.6 hPa West 20.9 km/h 29 km/h 86 % 0 mm 0 W/m2
04:02 9.6 °C 7.4 °C 981.6 hPa West 19.3 km/h 30.6 km/h 86 % 0 mm 0 W/m2
04:07 9.4 °C 7.3 °C 981.6 hPa WNW 20.9 km/h 29 km/h 87 % 0 mm 0 W/m2
04:12 9.3 °C 7.2 °C 981.9 hPa WNW 11.3 km/h 17.7 km/h 87 % 0 mm 0 W/m2
04:17 9.1 °C 7.1 °C 981.9 hPa West 20.9 km/h 33.8 km/h 87 % 0 mm 0 W/m2
04:22 8.9 °C 6.8 °C 982.3 hPa WNW 19.3 km/h 25.7 km/h 87 % 0 mm 0 W/m2
04:37 8.2 °C 6 °C 982.6 hPa WNW 22.5 km/h 32.2 km/h 86 % 0 mm 0 W/m2
04:42 7.9 °C 5.9 °C 983 hPa WNW 19.3 km/h 33.8 km/h 87 % 0 mm 0 W/m2
04:47 7.8 °C 5.6 °C 983 hPa WNW 19.3 km/h 30.6 km/h 86 % 0 mm 0 W/m2
04:52 7.7 °C 5.7 °C 983.3 hPa West 12.9 km/h 19.3 km/h 87 % 0 mm 0 W/m2
04:57 7.6 °C 5.6 °C 983.6 hPa West 19.3 km/h 32.2 km/h 87 % 0 mm 0 W/m2
05:02 7.3 °C 5.3 °C 983.6 hPa West 20.9 km/h 30.6 km/h 87 % 0 mm 0 W/m2
05:12 7 °C 5.2 °C 984 hPa West 20.9 km/h 35.4 km/h 88 % 0 mm 0 W/m2
05:17 6.9 °C 5.1 °C 984.3 hPa West 16.1 km/h 30.6 km/h 88 % 0 mm 0 W/m2
05:27 6.7 °C 5 °C 984.6 hPa West 20.9 km/h 37 km/h 89 % 0 mm 0 W/m2
05:32 6.4 °C 4.6 °C 984.6 hPa West 24.1 km/h 37 km/h 88 % 0 mm 0 W/m2
05:37 6.1 °C 4.1 °C 984.6 hPa West 20.9 km/h 33.8 km/h 87 % 0 mm 0 W/m2
05:42 6 °C 4 °C 984.6 hPa WNW 20.9 km/h 32.2 km/h 87 % 0 mm 0 W/m2
05:47 5.9 °C 3.7 °C 985 hPa WNW 16.1 km/h 30.6 km/h 86 % 0 mm 0 W/m2
05:59 5.8 °C 3.6 °C 985 hPa West 14.5 km/h 24.1 km/h 86 % 0 mm 0 W/m2
06:09 5.7 °C 3.6 °C 985.3 hPa West 12.9 km/h 20.9 km/h 86 % 0 mm 0 W/m2
06:14 5.7 °C 3.6 °C 985.3 hPa West 16.1 km/h 24.1 km/h 86 % 0 mm 0 W/m2
06:19 5.7 °C 3.6 °C 985.3 hPa WSW 16.1 km/h 25.7 km/h 86 % 0 mm 0 W/m2
06:24 5.7 °C 3.4 °C 985.7 hPa West 19.3 km/h 30.6 km/h 85 % 0 mm 0 W/m2
06:29 5.7 °C 3.4 °C 985.7 hPa West 16.1 km/h 24.1 km/h 85 % 0 mm 0 W/m2
06:34 5.6 °C 3.1 °C 985.7 hPa WSW 17.7 km/h 29 km/h 84 % 0 mm 0 W/m2
06:39 5.6 °C 3.1 °C 986 hPa WSW 20.9 km/h 33.8 km/h 84 % 0 mm 0 W/m2
06:44 5.5 °C 2.8 °C 986.3 hPa WSW 20.9 km/h 30.6 km/h 83 % 0 mm 0 W/m2
07:09 5.7 °C 3.1 °C 987 hPa WSW 11.3 km/h 16.1 km/h 83 % 0 mm 0 W/m2
07:19 5.4 °C 2.7 °C 987.4 hPa WSW 12.9 km/h 19.3 km/h 83 % 0 mm 0 W/m2
07:34 5.3 °C 2.5 °C 987.7 hPa WSW 12.9 km/h 20.9 km/h 82 % 0 mm 0 W/m2
07:39 5.3 °C 2.7 °C 987.7 hPa WSW 16.1 km/h 24.1 km/h 83 % 0 mm 0 W/m2
07:49 5.3 °C 2.5 °C 988 hPa WSW 17.7 km/h 24.1 km/h 82 % 0 mm 7 W/m2
07:54 5.3 °C 2.5 °C 988 hPa WSW 16.1 km/h 25.7 km/h 82 % 0 mm 9 W/m2
07:59 5.3 °C 2.5 °C 988.4 hPa WSW 16.1 km/h 25.7 km/h 82 % 0 mm 12 W/m2
08:04 5.4 °C 2.4 °C 988.4 hPa WSW 14.5 km/h 22.5 km/h 81 % 0 mm 14 W/m2
08:14 5.5 °C 2.5 °C 988.7 hPa WSW 12.9 km/h 20.9 km/h 81 % 0 mm 18 W/m2
08:39 5.9 °C 2.7 °C 989.1 hPa WSW 12.9 km/h 20.9 km/h 80 % 0 mm 28 W/m2
08:44 6 °C 2.6 °C 989.1 hPa WSW 16.1 km/h 24.1 km/h 79 % 0 mm 32 W/m2
08:49 6.2 °C 2.7 °C 989.4 hPa WSW 22.5 km/h 32.2 km/h 78 % 0 mm 35 W/m2
09:04 6.6 °C 2.8 °C 989.4 hPa SW 9.7 km/h 17.7 km/h 77 % 0 mm 123 W/m2
09:09 6.7 °C 2.9 °C 989.4 hPa SW 16.1 km/h 25.7 km/h 77 % 0 mm 137 W/m2
09:19 6.9 °C 2.9 °C 989.7 hPa SW 14.5 km/h 20.9 km/h 76 % 0 mm 148 W/m2
09:24 7.1 °C 2.9 °C 989.7 hPa SSW 16.1 km/h 25.7 km/h 75 % 0 mm 156 W/m2
09:29 7.3 °C 3.2 °C 989.7 hPa SW 14.5 km/h 22.5 km/h 75 % 0 mm 162 W/m2
09:34 7.3 °C 3.2 °C 989.7 hPa SSW 14.5 km/h 24.1 km/h 75 % 0 mm 172 W/m2
09:40 7.3 °C 3.2 °C 989.7 hPa SSW 16.1 km/h 30.6 km/h 75 % 0 mm 176 W/m2
09:45 7.3 °C 3.3 °C 990.1 hPa SSW 11.3 km/h 17.7 km/h 76 % 0 mm 183 W/m2
09:50 7.3 °C 3.3 °C 990.1 hPa SSW 14.5 km/h 22.5 km/h 76 % 0 mm 186 W/m2
09:55 7.4 °C 3.6 °C 990.1 hPa SSW 12.9 km/h 24.1 km/h 77 % 0 mm 200 W/m2
10:00 7.4 °C 3.6 °C 990.1 hPa SSW 16.1 km/h 25.7 km/h 77 % 0 mm 229 W/m2
10:05 7.4 °C 3.6 °C 990.1 hPa SSW 14.5 km/h 29 km/h 77 % 0 mm 142 W/m2
10:35 7.7 °C 3.9 °C 990.1 hPa SSW 24.1 km/h 40.2 km/h 77 % 0 mm 243 W/m2
10:40 7.8 °C 4 °C 990.4 hPa SSW 19.3 km/h 32.2 km/h 77 % 0 mm 260 W/m2
10:45 7.9 °C 3.9 °C 990.4 hPa SSW 19.3 km/h 33.8 km/h 76 % 0 mm 255 W/m2
10:50 8.1 °C 3.9 °C 990.1 hPa SW 25.7 km/h 35.4 km/h 75 % 0 mm 264 W/m2
11:00 8.4 °C 4.1 °C 990.1 hPa SW 16.1 km/h 29 km/h 74 % 0 mm 283 W/m2
11:05 8.5 °C 4.1 °C 990.1 hPa SW 25.7 km/h 40.2 km/h 74 % 0 mm 274 W/m2
11:25 8.7 °C 4.1 °C 990.1 hPa SW 25.7 km/h 48.3 km/h 73 % 0 mm 283 W/m2
11:35 8.8 °C 4.4 °C 989.7 hPa SW 22.5 km/h 38.6 km/h 74 % 0 mm 292 W/m2
11:40 8.9 °C 4.3 °C 990.1 hPa SW 29 km/h 45.1 km/h 73 % 0 mm 301 W/m2
11:45 8.8 °C 4.2 °C 989.7 hPa SW 38.6 km/h 53.1 km/h 73 % 0 mm 295 W/m2
11:50 8.8 °C 4.2 °C 989.7 hPa SW 30.6 km/h 41.8 km/h 73 % 0 mm 302 W/m2
11:55 8.9 °C 4.3 °C 989.7 hPa SW 33.8 km/h 51.5 km/h 73 % 0 mm 295 W/m2
12:00 8.8 °C 4.2 °C 990.1 hPa SW 37 km/h 54.7 km/h 73 % 0 mm 113 W/m2
12:05 8.5 °C 4.3 °C 990.1 hPa SW 27.4 km/h 43.5 km/h 75 % 0 mm 132 W/m2
12:10 8.3 °C 4.5 °C 990.1 hPa WSW 33.8 km/h 46.7 km/h 77 % 0 mm 137 W/m2
12:30 8.6 °C 4.6 °C 990.7 hPa WSW 30.6 km/h 46.7 km/h 76 % 0 mm 81 W/m2
12:35 8.5 °C 4.7 °C 990.7 hPa SW 32.2 km/h 53.1 km/h 77 % 0 mm 95 W/m2
12:40 8.6 °C 4.8 °C 991.1 hPa SW 30.6 km/h 53.1 km/h 77 % 0 mm 113 W/m2
12:45 8.6 °C 4.8 °C 990.7 hPa WSW 35.4 km/h 54.7 km/h 77 % 0 mm 113 W/m2
13:01 9 °C 5 °C 991.1 hPa WSW 29 km/h 38.6 km/h 76 % 0 mm 90 W/m2
13:06 9 °C 5 °C 991.1 hPa WSW 29 km/h 49.9 km/h 76 % 0 mm 197 W/m2
13:21 9.3 °C 5.3 °C 992.1 hPa WSW 33.8 km/h 46.7 km/h 76 % 0 mm 104 W/m2
13:26 8.9 °C 5.4 °C 992.4 hPa West 32.2 km/h 57.9 km/h 79 % 0 mm 63 W/m2
13:32 8.3 °C 5.4 °C 992.4 hPa WSW 33.8 km/h 53.1 km/h 82 % 0 mm 86 W/m2
13:37 7.7 °C 5.2 °C 992.8 hPa West 30.6 km/h 46.7 km/h 84 % 0 mm 83 W/m2
13:47 7.3 °C 5.1 °C 993.1 hPa West 29 km/h 43.5 km/h 86 % 0.25 mm 206 W/m2
14:02 7.8 °C 4.9 °C 993.5 hPa West 27.4 km/h 48.3 km/h 82 % 0.25 mm 185 W/m2
14:07 7.8 °C 4.7 °C 993.5 hPa West 27.4 km/h 46.7 km/h 81 % 0.25 mm 40 W/m2
14:12 7.7 °C 4.4 °C 993.8 hPa West 30.6 km/h 51.5 km/h 80 % 0.25 mm 44 W/m2
14:17 7.6 °C 4 °C 993.8 hPa WSW 25.7 km/h 49.9 km/h 78 % 0.25 mm 26 W/m2
14:27 7.6 °C 3.8 °C 994.1 hPa West 27.4 km/h 46.7 km/h 77 % 0.25 mm 26 W/m2
14:32 7.6 °C 3.8 °C 994.5 hPa West 27.4 km/h 41.8 km/h 77 % 0.25 mm 25 W/m2
14:37 7.4 °C 3.8 °C 994.8 hPa West 30.6 km/h 53.1 km/h 78 % 0.25 mm 39 W/m2
14:42 7.3 °C 3.7 °C 995.1 hPa West 20.9 km/h 37 km/h 78 % 0 mm 23 W/m2
14:57 7.2 °C 3.8 °C 995.5 hPa WSW 27.4 km/h 43.5 km/h 79 % 0 mm 19 W/m2
15:07 7.2 °C 3.8 °C 995.8 hPa West 25.7 km/h 45.1 km/h 79 % 0 mm 16 W/m2
15:17 7.1 °C 3.9 °C 996.2 hPa West 25.7 km/h 38.6 km/h 80 % 0 mm 26 W/m2
15:22 6.9 °C 3.9 °C 996.5 hPa WNW 22.5 km/h 37 km/h 81 % 0 mm 14 W/m2
15:27 6.7 °C 3.8 °C 996.5 hPa West 19.3 km/h 29 km/h 82 % 0 mm 11 W/m2
15:32 6.6 °C 3.9 °C 996.5 hPa WNW 19.3 km/h 35.4 km/h 83 % 0 mm 11 W/m2
15:37 6.4 °C 3.7 °C 996.8 hPa WNW 16.1 km/h 25.7 km/h 83 % 0 mm 9 W/m2
15:42 6.3 °C 3.8 °C 996.8 hPa WNW 12.9 km/h 19.3 km/h 84 % 0 mm 9 W/m2
15:57 6.3 °C 4.1 °C 997.5 hPa West 25.7 km/h 37 km/h 86 % 0 mm 0 W/m2
16:02 6.3 °C 3.9 °C 997.5 hPa West 27.4 km/h 48.3 km/h 85 % 0 mm 0 W/m2
16:12 6.1 °C 3.9 °C 997.5 hPa West 17.7 km/h 25.7 km/h 86 % 0 mm 0 W/m2
16:17 6.1 °C 3.9 °C 997.9 hPa West 16.1 km/h 22.5 km/h 86 % 0 mm 0 W/m2
16:22 6.1 °C 3.9 °C 998.2 hPa WSW 14.5 km/h 22.5 km/h 86 % 0 mm 0 W/m2
16:25 6.1 °C 3.9 °C 998.2 hPa WSW 17.7 km/h 22.5 km/h 86 % 0 mm 0 W/m2
16:30 6.1 °C 3.9 °C 998.2 hPa WSW 16.1 km/h 25.7 km/h 86 % 0 mm 0 W/m2
16:40 6.1 °C 3.9 °C 998.5 hPa West 12.9 km/h 22.5 km/h 86 % 0 mm 0 W/m2
16:45 6.1 °C 3.9 °C 998.5 hPa West 16.1 km/h 24.1 km/h 86 % 0 mm 0 W/m2
16:50 6.2 °C 3.9 °C 998.9 hPa WSW 19.3 km/h 29 km/h 85 % 0 mm 0 W/m2
16:55 6.2 °C 3.9 °C 998.9 hPa WSW 16.1 km/h 22.5 km/h 85 % 0 mm 0 W/m2
17:05 6.2 °C 3.9 °C 999.2 hPa WSW 14.5 km/h 19.3 km/h 85 % 0 mm 0 W/m2
17:15 6.1 °C 3.8 °C 999.5 hPa West 11.3 km/h 17.7 km/h 85 % 0 mm 0 W/m2
17:20 6.1 °C 3.8 °C 999.5 hPa West 9.7 km/h 14.5 km/h 85 % 0 mm 0 W/m2
17:30 5.9 °C 3.7 °C 999.5 hPa WSW 11.3 km/h 17.7 km/h 86 % 0 mm 0 W/m2
17:35 6 °C 3.8 °C 999.5 hPa WSW 14.5 km/h 20.9 km/h 86 % 0 mm 0 W/m2
17:40 6.1 °C 3.8 °C 999.5 hPa WSW 16.1 km/h 24.1 km/h 85 % 0 mm 0 W/m2
17:50 6.1 °C 3.8 °C 999.9 hPa West 12.9 km/h 19.3 km/h 85 % 0 mm 0 W/m2
17:55 6 °C 3.7 °C 1000.2 hPa WSW 11.3 km/h 16.1 km/h 85 % 0 mm 0 W/m2
18:00 6 °C 3.7 °C 1000.2 hPa WSW 16.1 km/h 22.5 km/h 85 % 0 mm 0 W/m2
18:05 6 °C 3.7 °C 1000.2 hPa West 16.1 km/h 25.7 km/h 85 % 0 mm 0 W/m2
18:15 5.9 °C 3.7 °C 1000.6 hPa West 12.9 km/h 20.9 km/h 86 % 0 mm 0 W/m2
18:20 5.9 °C 3.7 °C 1000.9 hPa West 14.5 km/h 20.9 km/h 86 % 0 mm 0 W/m2
18:30 5.9 °C 3.9 °C 1000.9 hPa WNW 16.1 km/h 24.1 km/h 87 % 0 mm 0 W/m2
18:35 5.9 °C 4.1 °C 1000.9 hPa West 14.5 km/h 20.9 km/h 88 % 0.25 mm 0 W/m2
18:45 5.7 °C 4 °C 1000.9 hPa West 12.9 km/h 17.7 km/h 89 % 0.25 mm 0 W/m2
18:50 5.6 °C 3.9 °C 1001.2 hPa West 11.3 km/h 17.7 km/h 89 % 0.25 mm 0 W/m2
18:55 5.5 °C 4 °C 1001.2 hPa West 17.7 km/h 24.1 km/h 90 % 0.25 mm 0 W/m2
19:00 5.6 °C 4.1 °C 1001.2 hPa West 14.5 km/h 25.7 km/h 90 % 0.25 mm 0 W/m2
19:05 5.6 °C 3.9 °C 1001.2 hPa West 14.5 km/h 19.3 km/h 89 % 0.25 mm 0 W/m2
19:10 5.5 °C 3.8 °C 1001.6 hPa West 12.9 km/h 20.9 km/h 89 % 0.25 mm 0 W/m2
19:15 5.4 °C 3.7 °C 1001.6 hPa West 14.5 km/h 20.9 km/h 89 % 0.25 mm 0 W/m2
19:20 5.4 °C 3.7 °C 1001.6 hPa West 14.5 km/h 20.9 km/h 89 % 0.25 mm 0 W/m2
19:30 5.4 °C 3.7 °C 1001.6 hPa West 14.5 km/h 24.1 km/h 89 % 0.25 mm 0 W/m2
19:35 5.3 °C 3.6 °C 1001.6 hPa West 14.5 km/h 24.1 km/h 89 % 0 mm 0 W/m2
19:45 5.4 °C 3.6 °C 1001.9 hPa West 17.7 km/h 25.7 km/h 88 % 0 mm 0 W/m2
19:51 5.4 °C 3.6 °C 1001.9 hPa West 16.1 km/h 22.5 km/h 88 % 0 mm 0 W/m2
20:01 5.4 °C 3.4 °C 1001.9 hPa West 17.7 km/h 24.1 km/h 87 % 0 mm 0 W/m2
20:06 5.3 °C 3.3 °C 1001.9 hPa West 14.5 km/h 24.1 km/h 87 % 0 mm 0 W/m2
20:16 5.2 °C 3.1 °C 1001.9 hPa West 14.5 km/h 19.3 km/h 86 % 0 mm 0 W/m2
20:21 5.2 °C 3.1 °C 1001.9 hPa WSW 22.5 km/h 40.2 km/h 86 % 0 mm 0 W/m2
20:26 5.3 °C 3 °C 1001.9 hPa West 19.3 km/h 29 km/h 85 % 0 mm 0 W/m2
20:36 5.2 °C 2.9 °C 1002.3 hPa West 14.5 km/h 22.5 km/h 85 % 0 mm 0 W/m2
20:41 5.2 °C 2.9 °C 1002.3 hPa West 14.5 km/h 25.7 km/h 85 % 0 mm 0 W/m2
20:51 5.2 °C 2.9 °C 1002.3 hPa West 12.9 km/h 19.3 km/h 85 % 0 mm 0 W/m2
20:56 5.2 °C 2.9 °C 1002.3 hPa West 12.9 km/h 25.7 km/h 85 % 0 mm 0 W/m2
21:01 5.1 °C 2.8 °C 1002.6 hPa West 11.3 km/h 17.7 km/h 85 % 0 mm 0 W/m2
21:06 5 °C 2.8 °C 1002.6 hPa West 11.3 km/h 17.7 km/h 86 % 0 mm 0 W/m2
21:11 4.9 °C 2.8 °C 1002.6 hPa West 9.7 km/h 12.9 km/h 86 % 0 mm 0 W/m2
21:16 4.9 °C 2.8 °C 1002.9 hPa West 4.8 km/h 9.7 km/h 86 % 0 mm 0 W/m2
21:21 4.8 °C 2.7 °C 1002.9 hPa West 1.6 km/h 6.4 km/h 86 % 0 mm 0 W/m2
21:26 4.6 °C 2.6 °C 1002.9 hPa West 3.2 km/h 8 km/h 87 % 0 mm 0 W/m2
21:31 4.6 °C 2.6 °C 1002.9 hPa West 1.6 km/h 8 km/h 87 % 0 mm 0 W/m2
21:36 4.5 °C 2.7 °C 1003.3 hPa WSW 8 km/h 16.1 km/h 88 % 0 mm 0 W/m2
21:41 4.6 °C 2.8 °C 1003.3 hPa SW 6.4 km/h 12.9 km/h 88 % 0 mm 0 W/m2
21:46 4.6 °C 2.8 °C 1003.6 hPa West 4.8 km/h 12.9 km/h 88 % 0 mm 0 W/m2
21:51 4.6 °C 2.8 °C 1003.3 hPa WSW 8 km/h 11.3 km/h 88 % 0 mm 0 W/m2
22:01 4.5 °C 2.7 °C 1003.6 hPa West 11.3 km/h 19.3 km/h 88 % 0 mm 0 W/m2
22:06 4.5 °C 2.7 °C 1003.6 hPa West 12.9 km/h 20.9 km/h 88 % 0 mm 0 W/m2
22:16 4.6 °C 2.8 °C 1003.3 hPa West 9.7 km/h 14.5 km/h 88 % 0 mm 0 W/m2
22:26 4.4 °C 2.6 °C 1003.3 hPa West 11.3 km/h 17.7 km/h 88 % 0 mm 0 W/m2
22:31 4.4 °C 2.6 °C 1003.3 hPa West 8 km/h 14.5 km/h 88 % 0 mm 0 W/m2
22:36 4.3 °C 2.5 °C 1003.3 hPa West 9.7 km/h 17.7 km/h 88 % 0 mm 0 W/m2
22:41 4.2 °C 2.4 °C 1003.3 hPa West 3.2 km/h 11.3 km/h 88 % 0 mm 0 W/m2
22:42 4.2 °C 2.4 °C 1003.3 hPa West 4.8 km/h 11.3 km/h 88 % 0 mm 0 W/m2
22:52 4 °C 2.2 °C 1003.6 hPa West 8 km/h 19.3 km/h 88 % 0 mm 0 W/m2
22:57 4 °C 2.2 °C 1003.6 hPa WSW 9.7 km/h 16.1 km/h 88 % 0 mm 0 W/m2
23:02 4.1 °C 2.3 °C 1003.6 hPa West 8 km/h 14.5 km/h 88 % 0 mm 0 W/m2
23:07 4.1 °C 2.3 °C 1003.6 hPa West 9.7 km/h 17.7 km/h 88 % 0 mm 0 W/m2
23:12 4.2 °C 2.2 °C 1003.6 hPa West 9.7 km/h 16.1 km/h 87 % 0 mm 0 W/m2
23:22 4.2 °C 2.1 °C 1003.6 hPa West 1.6 km/h 6.4 km/h 86 % 0 mm 0 W/m2
23:27 4.1 °C 1.9 °C 1003.6 hPa Calm     86 % 0 mm 0 W/m2
23:32 3.9 °C 1.8 °C 1003.6 hPa ESE 1.6 km/h 8 km/h 86 % 0 mm 0 W/m2
23:37 3.8 °C 1.8 °C 1003.6 hPa ENE 4.8 km/h 8 km/h 87 % 0 mm 0 W/m2
23:47 3.8 °C 1.8 °C 1003.6 hPa East 3.2 km/h 8 km/h 87 % 0 mm 0 W/m2
23:58 3.8 °C 1.8 °C 1003.9 hPa Calm   1.6 km/h 87 % 0 mm 0 W/m2
Delerius-Weather
Compliments of Weather Underground - 1.75 mb

Data updates at regular intervals.